Time;durP1;ratioP1;P1;durP2;ratioP2;P2;SDS_P1;SDS_P2;PMS_P1;PMS_P2;Temp;Humidity;BMP_temperature;BMP_pressure;BME280_temperature;BME280_humidity;BME280_pressure;Samples;Min_cycle;Max_cycle;Signal;HPM_P1;HPM_P2
2022/01/15 00:00:06;;;;;;;45.00;8.43;;;;;;;;;;5011611;28;20046;-63
2022/01/15 00:02:32;;;;;;;38.17;7.47;;;;;;;;;;5010212;28;20077;-63
2022/01/15 00:04:58;;;;;;;134.27;10.68;;;;;;;;;;5010920;28;20077;-64
2022/01/15 00:07:24;;;;;;;106.43;10.65;;;;;;;;;;5009622;28;20054;-63
2022/01/15 00:09:51;;;;;;;75.25;8.95;;;;;;;;;;5010617;28;20050;-63
2022/01/15 00:12:17;;;;;;;39.38;7.57;;;;;;;;;;5009348;28;20489;-63
2022/01/15 00:14:44;;;;;;;67.55;8.00;;;;;;;;;;5012045;28;20342;-63
2022/01/15 00:17:21;;;;;;;77.05;8.48;;;;;;;;;;5011817;28;20121;-64
2022/01/15 00:19:50;;;;;;;171.93;10.55;;;;;;;;;;5009904;28;20096;-63
2022/01/15 00:22:18;;;;;;;153.85;9.23;;;;;;;;;;5011169;28;20080;-63
2022/01/15 00:24:46;;;;;;;260.38;12.07;;;;;;;;;;5010772;28;20073;-63
2022/01/15 00:27:12;;;;;;;306.83;12.73;;;;;;;;;;5010613;28;20045;-63
2022/01/15 00:29:38;;;;;;;77.65;7.68;;;;;;;;;;5011303;28;20184;-63
2022/01/15 00:32:05;;;;;;;63.92;8.07;;;;;;;;;;5007131;28;20054;-63
2022/01/15 00:34:32;;;;;;;36.65;5.28;;;;;;;;;;5013561;28;20042;-63
2022/01/15 00:36:58;;;;;;;39.38;6.38;;;;;;;;;;5015288;28;20050;-63
2022/01/15 00:39:24;;;;;;;90.75;8.35;;;;;;;;;;5012597;28;20049;-63
2022/01/15 00:41:51;;;;;;;67.32;6.63;;;;;;;;;;5014291;28;20061;-63
2022/01/15 00:44:17;;;;;;;108.55;7.53;;;;;;;;;;5015044;28;20417;-63
2022/01/15 00:46:43;;;;;;;55.03;7.30;;;;;;;;;;5013052;28;20095;-62
2022/01/15 00:49:10;;;;;;;26.55;5.57;;;;;;;;;;5015011;28;20045;-63
2022/01/15 00:51:37;;;;;;;24.80;5.90;;;;;;;;;;5015173;28;20072;-62
2022/01/15 00:54:03;;;;;;;53.72;6.57;;;;;;;;;;5014480;28;20030;-63
2022/01/15 00:56:29;;;;;;;23.00;5.85;;;;;;;;;;5015145;28;20042;-63
2022/01/15 00:58:56;;;;;;;23.73;5.88;;;;;;;;;;5014724;28;20033;-63
2022/01/15 01:01:22;;;;;;;20.65;5.80;;;;;;;;;;5014459;28;20343;-63
2022/01/15 01:03:49;;;;;;;14.27;4.78;;;;;;;;;;5014961;28;20033;-63
2022/01/15 01:06:16;;;;;;;15.93;4.57;;;;;;;;;;5014467;28;20828;-63
2022/01/15 01:08:42;;;;;;;13.50;4.10;;;;;;;;;;5013198;28;20061;-63
2022/01/15 01:11:15;;;;;;;14.70;4.35;;;;;;;;;;5041643;28;20406;-63
2022/01/15 01:24:21;;;;;;;10.65;3.10;;;;;;;;;;5014283;28;20551;-63
2022/01/15 01:26:56;;;;;;;10.70;3.33;;;;;;;;;;5014842;28;20044;-62
2022/01/15 01:29:38;;;;;;;10.55;2.95;;;;;;;;;;5014139;28;20399;-63
2022/01/15 01:34:33;;;;;;;13.45;3.05;;;;;;;;;;5012581;28;20046;-63
2022/01/15 01:37:09;;;;;;;8.32;2.00;;;;;;;;;;5012453;28;20056;-63
2022/01/15 01:39:50;;;;;;;12.38;2.67;;;;;;;;;;5014104;28;20141;-63
2022/01/15 01:45:08;;;;;;;12.75;3.00;;;;;;;;;;5010010;28;20455;-63
2022/01/15 01:47:41;;;;;;;23.13;3.90;;;;;;;;;;5013834;28;20253;-63
2022/01/15 01:50:13;;;;;;;8.45;2.70;;;;;;;;;;5041661;28;20045;-63
2022/01/15 01:52:40;;;;;;;8.88;3.05;;;;;;;;;;5012299;28;20398;-63
2022/01/15 01:55:06;;;;;;;19.20;3.60;;;;;;;;;;5012768;28;20078;-63
2022/01/15 01:57:33;;;;;;;26.48;4.32;;;;;;;;;;5014440;28;20054;-63
2022/01/15 01:59:59;;;;;;;17.65;5.43;;;;;;;;;;5013810;28;20046;-63
2022/01/15 02:02:25;;;;;;;16.17;6.05;;;;;;;;;;5013710;28;20101;-63
2022/01/15 02:04:56;;;;;;;20.50;7.18;;;;;;;;;;5012865;28;20136;-63
2022/01/15 02:07:22;;;;;;;18.08;7.32;;;;;;;;;;5013500;28;20060;-63
2022/01/15 02:09:49;;;;;;;22.35;7.32;;;;;;;;;;5011932;28;20040;-63
2022/01/15 02:12:15;;;;;;;17.73;6.88;;;;;;;;;;5012614;28;20100;-63
2022/01/15 02:14:41;;;;;;;17.25;6.65;;;;;;;;;;5012251;28;20096;-63
2022/01/15 02:17:07;;;;;;;16.83;6.22;;;;;;;;;;5027740;28;20379;-63
2022/01/15 02:19:34;;;;;;;13.77;5.47;;;;;;;;;;5013338;28;20069;-63
2022/01/15 02:24:45;;;;;;;20.10;6.70;;;;;;;;;;5011363;28;20401;-63
2022/01/15 02:27:11;;;;;;;22.50;7.10;;;;;;;;;;5013149;28;20127;-63
2022/01/15 02:29:38;;;;;;;19.48;6.53;;;;;;;;;;5013351;28;20033;-63
2022/01/15 02:32:04;;;;;;;16.38;6.50;;;;;;;;;;5012950;28;20050;-63
2022/01/15 02:34:30;;;;;;;14.60;6.43;;;;;;;;;;5013133;28;20053;-63
2022/01/15 02:36:56;;;;;;;21.55;7.00;;;;;;;;;;5013029;28;20046;-63
2022/01/15 02:39:22;;;;;;;24.83;8.00;;;;;;;;;;5011872;28;20046;-63
2022/01/15 02:41:49;;;;;;;23.90;8.05;;;;;;;;;;5009353;28;20041;-63
2022/01/15 02:44:17;;;;;;;25.50;7.05;;;;;;;;;;5012863;28;20418;-63
2022/01/15 02:49:17;;;;;;;18.50;6.43;;;;;;;;;;5009257;28;20136;-63
2022/01/15 02:51:43;;;;;;;19.70;6.50;;;;;;;;;;5010975;28;20048;-63
2022/01/15 02:54:09;;;;;;;30.50;7.25;;;;;;;;;;5012061;28;20057;-63
2022/01/15 02:56:39;;;;;;;27.95;6.13;;;;;;;;;;5012914;28;20057;-63
2022/01/15 02:59:07;;;;;;;43.58;7.30;;;;;;;;;;5012147;28;20057;-63
2022/01/15 03:01:33;;;;;;;19.45;6.40;;;;;;;;;;5011507;28;20050;-63
2022/01/15 03:04:00;;;;;;;14.57;5.32;;;;;;;;;;5012448;28;20046;-63
2022/01/15 03:06:26;;;;;;;16.27;5.45;;;;;;;;;;5011036;28;20410;-63
2022/01/15 03:08:53;;;;;;;15.13;5.88;;;;;;;;;;5012479;28;20385;-63
2022/01/15 03:11:19;;;;;;;14.93;5.22;;;;;;;;;;5012035;28;20048;-63
2022/01/15 03:13:46;;;;;;;14.45;4.85;;;;;;;;;;5011175;28;20057;-63
2022/01/15 03:16:15;;;;;;;14.93;5.20;;;;;;;;;;5012516;28;20042;-63
2022/01/15 03:18:42;;;;;;;12.25;5.30;;;;;;;;;;5011064;28;20062;-63
2022/01/15 03:21:08;;;;;;;15.02;5.28;;;;;;;;;;5011318;28;20045;-63
2022/01/15 03:23:34;;;;;;;34.95;7.00;;;;;;;;;;5012043;28;20056;-63
2022/01/15 03:26:01;;;;;;;31.33;7.88;;;;;;;;;;5007375;28;20051;-63
2022/01/15 03:28:27;;;;;;;40.05;7.70;;;;;;;;;;5011454;28;20133;-63
2022/01/15 03:30:53;;;;;;;53.55;7.90;;;;;;;;;;5010354;28;20397;-63
2022/01/15 03:33:19;;;;;;;46.05;7.68;;;;;;;;;;5011954;28;20092;-63
2022/01/15 03:35:45;;;;;;;18.73;6.63;;;;;;;;;;5011160;28;20042;-63
2022/01/15 03:38:11;;;;;;;22.50;5.95;;;;;;;;;;5011615;28;20533;-63
2022/01/15 03:40:38;;;;;;;27.10;5.65;;;;;;;;;;5011812;28;20045;-63
2022/01/15 03:43:05;;;;;;;12.80;5.35;;;;;;;;;;5010984;28;20176;-62
2022/01/15 03:45:31;;;;;;;14.38;5.10;;;;;;;;;;5011952;28;20088;-63
2022/01/15 03:47:57;;;;;;;14.27;5.20;;;;;;;;;;5010527;28;20061;-63
2022/01/15 03:50:24;;;;;;;15.25;5.13;;;;;;;;;;5008472;28;20037;-63
2022/01/15 03:52:51;;;;;;;16.17;4.72;;;;;;;;;;5006433;28;20049;-63
2022/01/15 03:55:17;;;;;;;11.50;4.57;;;;;;;;;;5010985;28;20060;-63
2022/01/15 03:57:44;;;;;;;11.13;4.72;;;;;;;;;;5010170;28;20162;-63
2022/01/15 04:00:15;;;;;;;12.82;4.95;;;;;;;;;;5010141;28;20074;-63
2022/01/15 04:02:41;;;;;;;11.63;4.35;;;;;;;;;;5008310;28;20127;-63
2022/01/15 04:05:08;;;;;;;10.82;4.20;;;;;;;;;;5011424;28;20046;-63
2022/01/15 04:07:35;;;;;;;12.13;4.50;;;;;;;;;;5011455;28;20046;-63
2022/01/15 04:10:01;;;;;;;10.50;3.70;;;;;;;;;;5008676;28;20121;-63
2022/01/15 04:12:27;;;;;;;13.52;4.95;;;;;;;;;;5011726;28;20042;-63
2022/01/15 04:14:53;;;;;;;11.48;4.18;;;;;;;;;;5011273;28;20037;-63
2022/01/15 04:17:20;;;;;;;9.60;4.07;;;;;;;;;;5010512;28;20116;-63
2022/01/15 04:19:46;;;;;;;14.07;4.07;;;;;;;;;;5010823;28;20504;-63
2022/01/15 04:22:12;;;;;;;20.48;4.88;;;;;;;;;;5011154;28;20048;-63
2022/01/15 04:24:38;;;;;;;21.33;4.85;;;;;;;;;;5010283;28;20169;-63
2022/01/15 04:27:04;;;;;;;13.55;4.40;;;;;;;;;;5009891;28;20054;-63
2022/01/15 04:29:33;;;;;;;11.15;3.33;;;;;;;;;;5011639;28;20037;-63
2022/01/15 04:32:00;;;;;;;7.55;3.20;;;;;;;;;;5008025;28;20042;-62
2022/01/15 04:34:27;;;;;;;11.38;2.50;;;;;;;;;;5010213;28;20157;-63
2022/01/15 04:37:02;;;;;;;6.80;2.13;;;;;;;;;;5011033;28;20056;-63
2022/01/15 04:39:28;;;;;;;4.75;2.03;;;;;;;;;;5010256;28;20038;-63
2022/01/15 04:41:54;;;;;;;9.07;2.70;;;;;;;;;;5010011;28;20445;-63
2022/01/15 04:44:20;;;;;;;6.90;2.55;;;;;;;;;;5011189;28;20077;-63
2022/01/15 04:46:46;;;;;;;8.20;2.08;;;;;;;;;;5010976;28;20042;-63
2022/01/15 04:49:12;;;;;;;5.43;2.13;;;;;;;;;;5011457;28;20107;-63
2022/01/15 04:51:39;;;;;;;6.97;2.33;;;;;;;;;;5010929;28;20048;-63
2022/01/15 04:54:05;;;;;;;5.65;2.08;;;;;;;;;;5010753;28;20041;-63
2022/01/15 04:56:31;;;;;;;5.07;2.28;;;;;;;;;;5008809;28;20161;-63
2022/01/15 04:58:57;;;;;;;3.75;1.60;;;;;;;;;;5008199;28;20037;-63
2022/01/15 05:01:24;;;;;;;3.92;1.55;;;;;;;;;;5008713;28;20049;-63
2022/01/15 05:03:50;;;;;;;4.40;1.58;;;;;;;;;;5004273;28;20046;-63
2022/01/15 05:06:17;;;;;;;4.53;1.70;;;;;;;;;;4998665;28;20078;-63
2022/01/15 05:08:45;;;;;;;4.57;1.73;;;;;;;;;;5009006;28;20046;-63
2022/01/15 05:11:16;;;;;;;4.88;1.73;;;;;;;;;;5010961;28;20046;-63
2022/01/15 05:13:42;;;;;;;5.93;2.40;;;;;;;;;;5040385;28;20053;-63
2022/01/15 05:16:08;;;;;;;7.95;2.13;;;;;;;;;;5010995;28;20049;-63
2022/01/15 05:18:34;;;;;;;6.50;2.63;;;;;;;;;;5006499;28;20510;-63
2022/01/15 05:21:00;;;;;;;6.07;2.38;;;;;;;;;;5011713;28;20053;-63
2022/01/15 05:23:27;;;;;;;5.55;2.60;;;;;;;;;;5014406;28;20045;-63
2022/01/15 05:25:53;;;;;;;6.47;3.00;;;;;;;;;;5014110;28;20042;-63
2022/01/15 05:28:19;;;;;;;7.47;3.03;;;;;;;;;;5012930;28;20065;-63
2022/01/15 05:30:45;;;;;;;6.97;2.95;;;;;;;;;;5014267;28;20069;-63
2022/01/15 05:33:11;;;;;;;7.38;3.60;;;;;;;;;;5014001;28;20481;-63
2022/01/15 05:35:37;;;;;;;8.05;3.70;;;;;;;;;;5013613;28;20405;-64
2022/01/15 05:38:03;;;;;;;10.50;4.20;;;;;;;;;;5012418;28;20077;-63
2022/01/15 05:40:29;;;;;;;8.98;4.10;;;;;;;;;;5008198;28;20374;-63
2022/01/15 05:42:56;;;;;;;8.02;4.05;;;;;;;;;;5013219;28;20138;-63
2022/01/15 05:45:24;;;;;;;7.68;3.35;;;;;;;;;;5014396;28;20179;-63
2022/01/15 05:47:50;;;;;;;7.47;3.38;;;;;;;;;;5009743;28;20050;-63
2022/01/15 05:50:16;;;;;;;8.00;3.80;;;;;;;;;;5013025;28;20053;-63
2022/01/15 05:52:42;;;;;;;6.22;3.00;;;;;;;;;;5013725;28;20436;-63
2022/01/15 05:55:08;;;;;;;7.13;2.90;;;;;;;;;;5012874;28;20470;-63
2022/01/15 05:57:35;;;;;;;6.57;3.08;;;;;;;;;;5014229;28;20080;-63
2022/01/15 06:00:01;;;;;;;6.80;2.95;;;;;;;;;;5013345;28;20045;-63
2022/01/15 06:02:27;;;;;;;7.15;2.90;;;;;;;;;;5012367;28;20049;-63
2022/01/15 06:04:53;;;;;;;7.75;3.28;;;;;;;;;;5012360;28;20165;-63
2022/01/15 06:07:19;;;;;;;7.38;2.92;;;;;;;;;;5011775;28;20083;-63
2022/01/15 06:09:45;;;;;;;6.28;2.67;;;;;;;;;;5010754;28;20561;-63
2022/01/15 06:12:12;;;;;;;4.97;2.10;;;;;;;;;;5007458;28;20186;-63
2022/01/15 06:14:38;;;;;;;5.35;2.60;;;;;;;;;;5003682;28;20137;-63
2022/01/15 06:17:04;;;;;;;4.95;2.60;;;;;;;;;;5010285;28;20046;-63
2022/01/15 06:19:30;;;;;;;6.43;2.85;;;;;;;;;;5009073;28;20539;-63
2022/01/15 06:21:56;;;;;;;9.25;3.33;;;;;;;;;;5005834;28;20417;-63
2022/01/15 06:24:23;;;;;;;7.60;3.58;;;;;;;;;;5001452;28;20107;-63
2022/01/15 06:26:49;;;;;;;10.35;4.45;;;;;;;;;;5008843;28;20056;-63
2022/01/15 06:29:15;;;;;;;9.70;4.03;;;;;;;;;;5012756;28;20722;-63
2022/01/15 06:31:41;;;;;;;8.65;3.92;;;;;;;;;;5011651;28;20049;-63
2022/01/15 06:34:07;;;;;;;9.98;3.50;;;;;;;;;;5013032;28;20499;-62
2022/01/15 06:36:33;;;;;;;5.78;2.47;;;;;;;;;;5012178;28;20046;-63
2022/01/15 06:39:00;;;;;;;7.25;3.17;;;;;;;;;;5011434;28;20042;-63
2022/01/15 06:41:26;;;;;;;6.50;2.63;;;;;;;;;;5012328;28;20046;-63
2022/01/15 06:43:52;;;;;;;9.50;2.38;;;;;;;;;;5012345;28;20497;-63
2022/01/15 06:46:18;;;;;;;6.25;2.88;;;;;;;;;;5011704;28;20056;-63
2022/01/15 06:48:45;;;;;;;5.63;2.65;;;;;;;;;;5012519;28;20065;-63
2022/01/15 06:51:11;;;;;;;7.68;2.67;;;;;;;;;;5012999;28;20057;-63
2022/01/15 06:53:37;;;;;;;8.07;3.13;;;;;;;;;;5011953;28;20129;-63
2022/01/15 06:56:03;;;;;;;4.75;2.08;;;;;;;;;;5012387;28;20394;-63
2022/01/15 06:58:29;;;;;;;4.20;1.60;;;;;;;;;;5010645;28;20111;-62
2022/01/15 07:00:56;;;;;;;3.60;1.50;;;;;;;;;;5004052;28;20482;-63
2022/01/15 07:03:22;;;;;;;3.50;1.73;;;;;;;;;;5012692;28;20355;-63
2022/01/15 07:05:48;;;;;;;4.97;1.52;;;;;;;;;;5011928;28;20042;-63
2022/01/15 07:08:14;;;;;;;4.85;1.58;;;;;;;;;;5012106;28;20064;-63
2022/01/15 07:10:41;;;;;;;4.03;1.10;;;;;;;;;;5012271;28;20556;-63
2022/01/15 07:13:08;;;;;;;5.35;1.25;;;;;;;;;;5007506;28;20351;-63
2022/01/15 07:15:34;;;;;;;3.70;1.58;;;;;;;;;;5010227;28;20030;-63
2022/01/15 07:18:00;;;;;;;5.30;1.80;;;;;;;;;;5009198;28;20045;-64
2022/01/15 07:20:27;;;;;;;4.00;1.25;;;;;;;;;;5007150;28;20056;-63
2022/01/15 07:22:53;;;;;;;5.07;2.20;;;;;;;;;;5008022;28;20034;-63
2022/01/15 07:25:19;;;;;;;8.68;2.85;;;;;;;;;;5007344;28;20048;-63
2022/01/15 07:27:46;;;;;;;6.40;2.28;;;;;;;;;;5007949;28;20049;-64
2022/01/15 07:30:13;;;;;;;5.22;2.35;;;;;;;;;;5006606;28;20048;-62
2022/01/15 07:32:40;;;;;;;5.18;2.28;;;;;;;;;;5007163;28;20046;-62
2022/01/15 07:35:06;;;;;;;6.40;3.38;;;;;;;;;;5009415;28;20153;-63
2022/01/15 07:37:33;;;;;;;4.75;2.53;;;;;;;;;;5016750;28;20090;-64
2022/01/15 07:40:00;;;;;;;6.07;3.30;;;;;;;;;;5021366;28;20204;-63
2022/01/15 07:42:28;;;;;;;6.40;3.15;;;;;;;;;;5031853;28;20049;-63
2022/01/15 07:44:54;;;;;;;6.50;2.78;;;;;;;;;;5015847;28;20192;-62
2022/01/15 07:47:21;;;;;;;7.18;2.88;;;;;;;;;;4996920;28;20081;-62
2022/01/15 07:49:47;;;;;;;8.02;3.10;;;;;;;;;;5001520;28;20412;-63
2022/01/15 07:52:13;;;;;;;7.72;3.55;;;;;;;;;;5007651;28;20054;-63
2022/01/15 07:54:39;;;;;;;7.40;3.83;;;;;;;;;;5009547;28;20070;-64
2022/01/15 07:57:06;;;;;;;9.25;3.72;;;;;;;;;;5042826;28;20046;-63
2022/01/15 07:59:33;;;;;;;7.22;3.45;;;;;;;;;;5015028;28;20124;-63
2022/01/15 08:01:59;;;;;;;8.57;3.17;;;;;;;;;;5015206;28;20216;-63
2022/01/15 08:04:25;;;;;;;7.35;3.13;;;;;;;;;;5014518;28;20065;-63
2022/01/15 08:06:52;;;;;;;7.70;2.90;;;;;;;;;;5016502;28;20129;-63
2022/01/15 08:09:18;;;;;;;6.35;3.00;;;;;;;;;;5013028;28;20116;-63
2022/01/15 08:11:44;;;;;;;9.30;4.00;;;;;;;;;;5011572;28;20457;-63
2022/01/15 08:14:10;;;;;;;7.82;3.42;;;;;;;;;;5016602;28;21476;-63
2022/01/15 08:16:36;;;;;;;8.73;3.15;;;;;;;;;;5012181;28;20434;-63
2022/01/15 08:19:02;;;;;;;13.27;3.75;;;;;;;;;;5010419;28;20038;-63
2022/01/15 08:21:28;;;;;;;8.20;3.05;;;;;;;;;;5013818;28;20080;-63
2022/01/15 08:23:55;;;;;;;11.32;3.65;;;;;;;;;;5010837;28;20064;-64
2022/01/15 08:26:21;;;;;;;9.40;3.75;;;;;;;;;;5012592;28;20053;-63
2022/01/15 08:28:47;;;;;;;9.07;3.42;;;;;;;;;;5013511;28;20064;-63
2022/01/15 08:31:13;;;;;;;10.40;3.65;;;;;;;;;;5009202;28;20046;-64
2022/01/15 08:33:39;;;;;;;14.45;3.78;;;;;;;;;;5008777;28;20107;-64
2022/01/15 08:36:06;;;;;;;8.82;3.90;;;;;;;;;;5014407;28;20461;-64
2022/01/15 08:38:32;;;;;;;9.88;4.10;;;;;;;;;;5016229;28;20121;-64
2022/01/15 08:40:58;;;;;;;15.13;4.88;;;;;;;;;;5015334;28;20480;-64
2022/01/15 08:43:24;;;;;;;12.65;5.25;;;;;;;;;;5016992;28;20054;-64
2022/01/15 08:45:51;;;;;;;13.00;4.68;;;;;;;;;;5014265;28;20046;-64
2022/01/15 08:48:19;;;;;;;10.85;3.92;;;;;;;;;;5012455;28;20050;-64
2022/01/15 08:50:47;;;;;;;8.45;3.13;;;;;;;;;;5013499;28;20107;-64
2022/01/15 08:53:14;;;;;;;10.27;3.97;;;;;;;;;;5020718;28;20050;-63
2022/01/15 08:55:41;;;;;;;7.03;2.90;;;;;;;;;;5016596;28;20045;-63
2022/01/15 08:58:07;;;;;;;8.98;3.50;;;;;;;;;;5046515;28;20045;-64
2022/01/15 09:00:33;;;;;;;9.57;4.03;;;;;;;;;;5015017;28;20072;-64
2022/01/15 09:02:59;;;;;;;7.15;3.03;;;;;;;;;;5015654;28;20065;-64
2022/01/15 09:05:25;;;;;;;8.82;3.45;;;;;;;;;;5045356;28;20046;-64
2022/01/15 09:07:52;;;;;;;8.80;3.70;;;;;;;;;;5015046;28;20041;-64
2022/01/15 09:10:19;;;;;;;9.65;3.85;;;;;;;;;;5019985;28;20057;-64
2022/01/15 09:12:45;;;;;;;10.27;3.78;;;;;;;;;;5016906;28;20061;-64
2022/01/15 09:15:11;;;;;;;9.25;3.63;;;;;;;;;;5016062;28;20041;-64
2022/01/15 09:17:37;;;;;;;12.77;3.60;;;;;;;;;;5017596;28;20393;-64
2022/01/15 09:20:04;;;;;;;10.00;3.78;;;;;;;;;;5018369;28;20041;-64
2022/01/15 09:22:31;;;;;;;8.65;3.65;;;;;;;;;;5014351;28;20176;-64
2022/01/15 09:24:57;;;;;;;10.15;3.97;;;;;;;;;;5020431;28;20432;-64
2022/01/15 09:30:16;;;;;;;10.38;3.97;;;;;;;;;;5010814;28;20049;-64
2022/01/15 09:32:47;;;;;;;14.48;5.07;;;;;;;;;;5051882;28;20096;-65
2022/01/15 09:35:14;;;;;;;15.20;5.40;;;;;;;;;;5019979;28;20049;-64
2022/01/15 09:37:41;;;;;;;16.15;5.43;;;;;;;;;;5019001;28;20436;-64
2022/01/15 09:40:08;;;;;;;16.50;5.20;;;;;;;;;;5016451;28;20095;-64
2022/01/15 09:42:35;;;;;;;15.57;5.35;;;;;;;;;;5015290;28;20136;-64
2022/01/15 09:45:02;;;;;;;19.67;5.80;;;;;;;;;;5014300;28;20145;-64
2022/01/15 09:47:28;;;;;;;15.07;5.93;;;;;;;;;;5018646;28;20037;-63
2022/01/15 09:49:55;;;;;;;16.40;5.82;;;;;;;;;;5019556;28;20099;-64
2022/01/15 09:52:22;;;;;;;20.23;7.03;;;;;;;;;;5013827;28;20121;-64
2022/01/15 09:54:50;;;;;;;22.55;7.40;;;;;;;;;;5012809;28;20049;-64
2022/01/15 09:57:17;;;;;;;20.85;6.75;;;;;;;;;;5016981;28;20575;-64
2022/01/15 09:59:43;;;;;;;18.10;6.80;;;;;;;;;;5019423;28;20135;-63
2022/01/15 10:02:09;;;;;;;16.85;7.05;;;;;;;;;;5016402;28;20045;-64
2022/01/15 10:04:36;;;;;;;16.10;6.82;;;;;;;;;;5014461;28;20465;-65
2022/01/15 10:07:09;;;;;;;18.17;6.45;;;;;;;;;;5018377;28;20208;-64
2022/01/15 10:09:36;;;;;;;20.17;6.93;;;;;;;;;;5015607;28;20049;-64
2022/01/15 10:12:02;;;;;;;21.08;6.78;;;;;;;;;;5018443;28;20046;-63
2022/01/15 10:14:35;;;;;;;17.98;6.07;;;;;;;;;;5015377;28;20073;-64
2022/01/15 10:17:03;;;;;;;12.90;5.43;;;;;;;;;;5017307;28;20037;-64
2022/01/15 10:19:34;;;;;;;12.70;4.63;;;;;;;;;;5019584;28;20041;-64
2022/01/15 10:22:08;;;;;;;13.52;4.97;;;;;;;;;;5018289;28;20600;-65
2022/01/15 10:24:35;;;;;;;12.80;5.53;;;;;;;;;;5016679;28;20100;-64
2022/01/15 10:27:17;;;;;;;13.27;5.22;;;;;;;;;;5018010;28;20042;-64
2022/01/15 10:29:48;;;;;;;12.35;5.28;;;;;;;;;;5016528;28;20050;-64
2022/01/15 10:32:14;;;;;;;12.70;5.55;;;;;;;;;;5012586;28;20049;-64
2022/01/15 10:34:44;;;;;;;16.90;5.75;;;;;;;;;;5019143;28;20060;-64
2022/01/15 10:37:12;;;;;;;13.13;5.95;;;;;;;;;;5011744;28;20092;-64
2022/01/15 10:39:39;;;;;;;14.57;5.47;;;;;;;;;;5019644;28;20066;-64
2022/01/15 10:42:14;;;;;;;15.50;5.97;;;;;;;;;;5017707;28;20042;-64
2022/01/15 10:44:41;;;;;;;12.23;5.32;;;;;;;;;;5016647;28;20065;-63
2022/01/15 10:47:09;;;;;;;12.98;4.75;;;;;;;;;;5015245;28;20045;-63
2022/01/15 10:49:37;;;;;;;13.95;6.07;;;;;;;;;;5014780;28;20132;-63
2022/01/15 10:52:06;;;;;;;18.77;6.45;;;;;;;;;;5017420;28;20374;-64
2022/01/15 10:54:34;;;;;;;18.75;6.47;;;;;;;;;;5014715;28;20069;-63
2022/01/15 10:57:07;;;;;;;18.15;6.32;;;;;;;;;;5017352;28;20046;-64
2022/01/15 10:59:34;;;;;;;24.45;7.25;;;;;;;;;;5017946;28;20472;-64
2022/01/15 11:02:17;;;;;;;32.53;8.07;;;;;;;;;;5024257;28;20053;-63
2022/01/15 11:04:43;;;;;;;29.27;8.50;;;;;;;;;;5013734;28;20103;-63
2022/01/15 11:07:16;;;;;;;46.80;8.93;;;;;;;;;;5017667;28;20057;-64
2022/01/15 11:09:44;;;;;;;60.60;9.75;;;;;;;;;;5013427;28;20046;-64
2022/01/15 11:12:10;;;;;;;48.22;9.48;;;;;;;;;;5019843;28;20134;-63
2022/01/15 11:14:38;;;;;;;92.50;13.10;;;;;;;;;;5015704;28;20133;-64
2022/01/15 11:17:05;;;;;;;98.35;12.77;;;;;;;;;;5014280;28;20127;-66
2022/01/15 11:19:33;;;;;;;44.88;11.10;;;;;;;;;;5012273;28;20048;-63
2022/01/15 11:21:59;;;;;;;72.00;14.85;;;;;;;;;;5018706;28;20125;-63
2022/01/15 11:24:25;;;;;;;37.22;11.98;;;;;;;;;;5014516;28;20460;-63
2022/01/15 11:26:55;;;;;;;30.15;10.88;;;;;;;;;;5012509;28;20164;-64
2022/01/15 11:29:21;;;;;;;41.05;11.85;;;;;;;;;;5042592;28;20045;-64
2022/01/15 11:31:51;;;;;;;36.03;11.48;;;;;;;;;;5016683;28;20085;-64
2022/01/15 11:34:19;;;;;;;33.97;11.43;;;;;;;;;;5013727;28;20576;-65
2022/01/15 11:36:46;;;;;;;30.52;10.75;;;;;;;;;;5009531;28;20401;-65
2022/01/15 11:39:18;;;;;;;38.42;11.98;;;;;;;;;;5011329;28;20038;-65
2022/01/15 11:41:46;;;;;;;48.50;13.88;;;;;;;;;;5017385;28;20413;-65
2022/01/15 11:44:19;;;;;;;59.92;14.10;;;;;;;;;;5012646;28;20061;-64
2022/01/15 11:46:47;;;;;;;33.50;10.77;;;;;;;;;;5009990;28;20038;-64
2022/01/15 11:49:26;;;;;;;59.85;12.98;;;;;;;;;;5012796;28;20057;-65
2022/01/15 11:51:54;;;;;;;66.28;13.75;;;;;;;;;;5009613;28;20045;-64
2022/01/15 11:54:21;;;;;;;84.25;15.68;;;;;;;;;;5012294;28;20528;-64
2022/01/15 11:56:48;;;;;;;72.40;15.25;;;;;;;;;;5010766;28;20393;-64
2022/01/15 11:59:24;;;;;;;83.32;17.45;;;;;;;;;;5011643;28;20113;-64
2022/01/15 12:01:52;;;;;;;111.63;19.88;;;;;;;;;;5009066;28;20454;-64
2022/01/15 12:04:25;;;;;;;83.40;16.30;;;;;;;;;;5011310;28;20049;-64
2022/01/15 12:07:02;;;;;;;120.22;17.75;;;;;;;;;;5008865;28;20046;-64
2022/01/15 12:09:32;;;;;;;126.43;18.90;;;;;;;;;;5037560;28;20556;-64
2022/01/15 12:11:58;;;;;;;116.38;18.92;;;;;;;;;;5009626;28;20041;-64
2022/01/15 12:14:43;;;;;;;161.07;22.13;;;;;;;;;;5006136;28;20074;-64
2022/01/15 12:17:23;;;;;;;130.93;19.58;;;;;;;;;;5004186;28;20065;-64
2022/01/15 12:19:50;;;;;;;181.98;22.92;;;;;;;;;;5005289;28;20497;-64
2022/01/15 12:22:35;;;;;;;100.18;19.95;;;;;;;;;;5004586;28;20516;-64
2022/01/15 12:25:02;;;;;;;113.55;19.77;;;;;;;;;;5006835;28;20049;-64
2022/01/15 12:27:29;;;;;;;94.75;19.98;;;;;;;;;;5005025;28;20100;-64
2022/01/15 12:30:00;;;;;;;99.22;20.05;;;;;;;;;;5007160;28;20068;-64
2022/01/15 12:32:28;;;;;;;88.72;19.13;;;;;;;;;;5043090;28;20461;-64
2022/01/15 12:34:55;;;;;;;77.10;16.40;;;;;;;;;;5012255;28;20498;-64
2022/01/15 12:37:22;;;;;;;50.88;15.15;;;;;;;;;;5011403;28;20395;-64
2022/01/15 12:39:49;;;;;;;42.40;14.52;;;;;;;;;;5012888;28;20034;-64
2022/01/15 12:42:17;;;;;;;90.47;16.13;;;;;;;;;;5011908;28;20129;-64
2022/01/15 12:44:44;;;;;;;68.88;16.55;;;;;;;;;;5010151;28;20044;-64
2022/01/15 12:47:11;;;;;;;49.67;13.85;;;;;;;;;;5011739;28;20079;-64
2022/01/15 12:49:39;;;;;;;53.17;13.95;;;;;;;;;;5010231;28;20050;-64
2022/01/15 12:52:09;;;;;;;45.17;13.88;;;;;;;;;;5009091;28;20136;-64
2022/01/15 12:54:35;;;;;;;47.08;15.23;;;;;;;;;;5010431;28;20057;-64
2022/01/15 12:57:02;;;;;;;52.63;14.93;;;;;;;;;;5002503;28;20427;-64
2022/01/15 12:59:29;;;;;;;44.55;14.48;;;;;;;;;;5006299;28;22055;-64
2022/01/15 13:01:55;;;;;;;35.72;13.75;;;;;;;;;;5011682;28;20077;-64
2022/01/15 13:04:21;;;;;;;33.33;13.80;;;;;;;;;;5008559;28;20879;-64
2022/01/15 13:06:50;;;;;;;41.55;14.90;;;;;;;;;;5042732;28;20046;-64
2022/01/15 13:09:17;;;;;;;36.10;14.63;;;;;;;;;;5010788;28;20401;-64
2022/01/15 13:11:48;;;;;;;36.38;14.18;;;;;;;;;;5043818;28;20058;-64
2022/01/15 13:14:15;;;;;;;40.65;15.75;;;;;;;;;;5013768;28;20588;-64
2022/01/15 13:16:41;;;;;;;45.25;16.35;;;;;;;;;;5013963;28;20049;-64
2022/01/15 13:19:07;;;;;;;42.80;16.83;;;;;;;;;;5012390;28;20438;-64
2022/01/15 13:21:34;;;;;;;46.78;17.00;;;;;;;;;;5013878;28;20034;-64
2022/01/15 13:24:03;;;;;;;41.72;16.20;;;;;;;;;;5012378;28;20038;-64
2022/01/15 13:26:29;;;;;;;49.58;17.83;;;;;;;;;;5011227;28;20058;-64
2022/01/15 13:28:56;;;;;;;71.32;19.38;;;;;;;;;;5013736;28;20100;-64
2022/01/15 13:31:26;;;;;;;65.60;19.77;;;;;;;;;;5013659;28;20052;-64
2022/01/15 13:33:52;;;;;;;58.80;20.48;;;;;;;;;;5012810;28;20120;-64
2022/01/15 13:36:19;;;;;;;41.42;15.90;;;;;;;;;;5013397;28;20068;-64
2022/01/15 13:38:49;;;;;;;72.80;19.23;;;;;;;;;;5013427;28;20050;-64
2022/01/15 13:41:17;;;;;;;50.25;17.92;;;;;;;;;;5009603;28;20448;-64
2022/01/15 13:43:44;;;;;;;45.83;17.02;;;;;;;;;;5011986;28;20050;-64
2022/01/15 13:46:13;;;;;;;108.85;20.15;;;;;;;;;;5011503;28;20117;-64
2022/01/15 13:48:39;;;;;;;61.85;19.80;;;;;;;;;;5013064;28;20041;-63
2022/01/15 13:53:58;;;;;;;96.93;22.75;;;;;;;;;;5012481;28;20046;-64
2022/01/15 13:56:26;;;;;;;67.18;21.88;;;;;;;;;;5013298;28;20405;-64
2022/01/15 13:58:54;;;;;;;69.20;22.15;;;;;;;;;;5009836;28;20438;-64
2022/01/15 14:01:21;;;;;;;69.90;21.90;;;;;;;;;;5010951;28;20122;-64
2022/01/15 14:03:48;;;;;;;63.60;20.92;;;;;;;;;;5012102;28;20046;-63
2022/01/15 14:06:15;;;;;;;84.85;21.42;;;;;;;;;;5010646;28;20050;-64
2022/01/15 14:08:41;;;;;;;82.80;21.40;;;;;;;;;;5008469;28;20501;-64
2022/01/15 14:11:09;;;;;;;82.60;23.02;;;;;;;;;;5010843;28;20034;-64
2022/01/15 14:13:36;;;;;;;104.43;22.40;;;;;;;;;;5010713;28;20129;-64
2022/01/15 14:16:04;;;;;;;152.85;25.33;;;;;;;;;;5041206;28;20077;-63
2022/01/15 14:18:41;;;;;;;140.07;24.63;;;;;;;;;;5014035;28;20049;-64
2022/01/15 14:21:38;;;;;;;153.55;25.42;;;;;;;;;;5015349;28;20490;-64
2022/01/15 14:24:15;;;;;;;135.65;25.90;;;;;;;;;;5011244;28;20414;-64
2022/01/15 14:26:46;;;;;;;123.65;26.65;;;;;;;;;;5011913;28;20033;-63
2022/01/15 14:29:12;;;;;;;118.13;25.65;;;;;;;;;;5011489;28;20058;-63
2022/01/15 14:31:38;;;;;;;120.13;21.92;;;;;;;;;;5012016;28;20089;-64
2022/01/15 14:34:06;;;;;;;121.20;22.27;;;;;;;;;;5013016;28;20497;-64
2022/01/15 14:36:32;;;;;;;191.02;24.58;;;;;;;;;;5012575;28;20441;-64
2022/01/15 14:39:04;;;;;;;251.73;28.42;;;;;;;;;;5012871;28;20425;-64
2022/01/15 14:41:30;;;;;;;246.50;27.35;;;;;;;;;;5013023;28;20057;-64
2022/01/15 14:43:57;;;;;;;218.88;27.55;;;;;;;;;;5010086;28;20092;-63
2022/01/15 14:46:23;;;;;;;213.18;25.75;;;;;;;;;;5012441;28;20041;-64
2022/01/15 14:48:49;;;;;;;201.80;27.58;;;;;;;;;;5012354;28;20049;-64
2022/01/15 14:51:16;;;;;;;233.45;29.13;;;;;;;;;;5009910;28;20497;-64
2022/01/15 14:53:43;;;;;;;264.95;31.70;;;;;;;;;;5013790;28;20120;-63
2022/01/15 14:56:10;;;;;;;225.38;26.10;;;;;;;;;;5007775;28;20041;-64